This is the latest recevied weather packets stored in our database for station/object SP4LIN-15. If no packets are shown the sender has not sent any weather packets the latest 10 day(s).
| Time | Temp. | Humidity | Pressure | Rain* | Wind** | Luminosity | Snow |
|---|---|---|---|---|---|---|---|
| 1777898346 | 26.67° C | 36% | 1002.3 hPa | 0 mm | - | - | - |
| 1777897446 | 27.78° C | 37% | 1002.5 hPa | 0 mm | - | - | - |
| 1777896546 | 27.78° C | 36% | 1002.4 hPa | 0 mm | - | - | - |
| 1777895646 | 27.78° C | 36% | 1002.6 hPa | 0 mm | - | - | - |
| 1777894746 | 27.78° C | 35% | 1002.6 hPa | 0 mm | - | - | - |
| 1777893846 | 28.89° C | 34% | 1002.6 hPa | 0 mm | - | - | - |
| 1777892946 | 26.11° C | 38% | 1002.8 hPa | 0 mm | - | - | - |
| 1777892046 | 25.56° C | 38% | 1002.7 hPa | 0 mm | - | - | - |
| 1777891146 | 27.78° C | 36% | 1003 hPa | 0 mm | - | - | - |
| 1777890246 | 26.11° C | 37% | 1003.3 hPa | 0 mm | - | - | - |
| 1777889346 | 26.67° C | 36% | 1003.3 hPa | 0 mm | - | - | - |
| 1777888446 | 26.11° C | 36% | 1003.2 hPa | 0 mm | - | - | - |
| 1777887547 | 28.33° C | 34% | 1003.1 hPa | 0 mm | - | - | - |
| 1777886647 | 29.44° C | 34% | 1003 hPa | 0 mm | - | - | - |
| 1777885747 | 26.67° C | 38% | 1003.3 hPa | 0 mm | - | - | - |
| 1777884847 | 25° C | 39% | 1003.4 hPa | 0 mm | - | - | - |
| 1777883947 | 25.56° C | 37% | 1003.4 hPa | 0 mm | - | - | - |
| 1777883047 | 25.56° C | 37% | 1003.5 hPa | 0 mm | - | - | - |
| 1777882147 | 27.22° C | 35% | 1003.2 hPa | 0 mm | - | - | - |
| 1777881247 | 27.78° C | 34% | 1003 hPa | 0 mm | - | - | - |
| 1777880347 | 26.67° C | 38% | 1003 hPa | 0 mm | - | - | - |
| 1777879447 | 23.89° C | 40% | 1003 hPa | 0 mm | - | - | - |
| 1777878547 | 22.22° C | 43% | 1003 hPa | 0 mm | - | - | - |
| 1777877647 | 22.22° C | 45% | 1002.9 hPa | 0 mm | - | - | - |
| 1777876747 | 20.56° C | 46% | 1002.7 hPa | 0 mm | - | - | - |
* Rain latest hour (hover to see other rain measurements)
** Current wind speed in m/s (hover to see current wind gust speed)